FLL weather

Fort Lauderdale Hollywood International Airport
Fort Lauderdale, Florida, United States

Public forecast

Using degrees Fahrenheit for public forecast. Weather courtesy of forecast.io.

METAR (pilot weather report)

Retrieved 2017/06/27 01:53 UTC (1 hour ago):

KFLL 270153Z 17006KT 10SM FEW030 SCT250 28/23 A3003 RMK AO2 SLP167 T02830233

TAF (pilot weather forecast)

Forecast is more than 12 hours old.

Retrieved 2017/06/26 00:42 UTC (1 day ago):

TAF KFLL 262335Z 2700/2724 13012KT P6SM SCT030 SCT045 FM270200 VRB05KT P6SM SCT030 SCT250 FM271300 14010KT P6SM SCT030 SCT250 FM271900 15010KT P6SM VCTS SCT030CB SCT250